Time;durP1;ratioP1;P1;durP2;ratioP2;P2;SDS_P1;SDS_P2;PMS_P1;PMS_P2;Temp;Humidity;BMP_temperature;BMP_pressure;BME280_temperature;BME280_humidity;BME280_pressure;Samples;Min_cycle;Max_cycle;Signal;HPM_P1;HPM_P2
2021/05/07 00:01:12;;;;;;;4.00;0.60;;;9.30;99.90;;;;;;5062571;28;20176;-63
2021/05/07 00:03:39;;;;;;;3.95;0.50;;;9.30;99.90;;;;;;5061023;28;20188;-63
2021/05/07 00:06:06;;;;;;;3.88;0.60;;;9.30;99.90;;;;;;5061081;28;20869;-62
2021/05/07 00:08:34;;;;;;;4.35;0.63;;;9.20;99.90;;;;;;5076344;28;20205;-61
2021/05/07 00:11:08;;;;;;;3.90;0.52;;;9.30;99.90;;;;;;5064525;28;20172;-63
2021/05/07 00:13:34;;;;;;;3.88;0.50;;;9.30;99.90;;;;;;5056389;28;20230;-63
2021/05/07 00:16:00;;;;;;;4.10;0.60;;;9.30;99.90;;;;;;5059030;28;20651;-61
2021/05/07 00:18:26;;;;;;;3.93;0.67;;;9.20;99.90;;;;;;5075730;28;20880;-63
2021/05/07 00:20:52;;;;;;;4.30;0.80;;;9.20;99.90;;;;;;5073754;28;20200;-62
2021/05/07 00:23:18;;;;;;;3.92;0.52;;;9.20;99.90;;;;;;5055252;28;20970;-62
2021/05/07 00:25:46;;;;;;;3.90;0.50;;;9.20;99.90;;;;;;5056288;28;20184;-62
2021/05/07 00:28:13;;;;;;;3.90;0.60;;;9.20;99.90;;;;;;5076176;28;20239;-62
2021/05/07 00:30:40;;;;;;;3.90;0.50;;;9.20;99.90;;;;;;5076242;28;20176;-63
2021/05/07 00:33:07;;;;;;;3.83;0.43;;;9.20;99.90;;;;;;5058759;28;20272;-62
2021/05/07 00:35:33;;;;;;;4.10;0.75;;;9.30;99.90;;;;;;5075895;28;20191;-63
2021/05/07 00:37:59;;;;;;;4.00;0.50;;;9.20;99.90;;;;;;5057402;28;20184;-63
2021/05/07 00:40:26;;;;;;;4.00;0.50;;;9.20;99.90;;;;;;5056025;28;20206;-64
2021/05/07 00:42:51;;;;;;;3.90;0.40;;;9.20;99.90;;;;;;5072356;28;20415;-64
2021/05/07 00:45:19;;;;;;;4.20;0.73;;;9.20;99.90;;;;;;5074810;28;20526;-62
2021/05/07 00:48:14;;;;;;;4.00;0.57;;;9.20;99.90;;;;;;5058995;28;20412;-64
2021/05/07 00:50:43;;;;;;;3.90;0.60;;;9.10;99.90;;;;;;5046681;28;20315;-63
2021/05/07 00:53:09;;;;;;;3.80;0.40;;;9.10;99.90;;;;;;5073846;28;20191;-63
2021/05/07 00:55:37;;;;;;;4.47;0.60;;;9.10;99.90;;;;;;5066958;28;20638;-63
2021/05/07 00:58:03;;;;;;;4.10;0.73;;;9.00;99.90;;;;;;5055596;28;20458;-64
2021/05/07 01:00:32;;;;;;;3.93;0.60;;;9.00;99.90;;;;;;5055586;28;20208;-64
2021/05/07 01:02:59;;;;;;;4.20;0.50;;;9.00;99.90;;;;;;5072059;28;20945;-64
2021/05/07 01:05:25;;;;;;;3.83;0.40;;;9.00;99.90;;;;;;5075630;28;20520;-63
2021/05/07 01:07:52;;;;;;;3.90;0.50;;;9.00;99.90;;;;;;5063898;28;20249;-65
2021/05/07 01:10:18;;;;;;;3.83;0.40;;;9.00;99.90;;;;;;5075247;28;20180;-65
2021/05/07 01:12:45;;;;;;;3.80;0.40;;;9.00;99.90;;;;;;5061654;28;20259;-64
2021/05/07 01:15:11;;;;;;;3.80;0.40;;;9.00;99.90;;;;;;5066578;28;20672;-64
2021/05/07 01:17:40;;;;;;;4.10;0.60;;;9.00;99.90;;;;;;5058972;28;20265;-64
2021/05/07 01:20:32;;;;;;;3.92;0.50;;;8.90;99.90;;;;;;5065220;28;20206;-63
2021/05/07 01:23:09;;;;;;;3.90;0.52;;;8.90;99.90;;;;;;5073560;28;20263;-64
2021/05/07 01:25:36;;;;;;;3.90;0.50;;;8.80;99.90;;;;;;5074424;28;20502;-64
2021/05/07 01:28:07;;;;;;;4.35;0.65;;;8.90;99.90;;;;;;5074799;28;20198;-63
2021/05/07 01:30:35;;;;;;;4.10;0.73;;;8.80;99.90;;;;;;5065047;28;20211;-64
2021/05/07 01:33:02;;;;;;;3.88;0.40;;;8.80;99.90;;;;;;5075134;28;20183;-63
2021/05/07 01:35:30;;;;;;;4.63;0.80;;;8.70;99.90;;;;;;5057811;28;20188;-63
2021/05/07 01:38:01;;;;;;;4.28;0.85;;;8.70;99.90;;;;;;5054443;28;20172;-63
2021/05/07 01:40:29;;;;;;;4.10;0.50;;;8.60;99.90;;;;;;5071534;28;20204;-63
2021/05/07 01:42:55;;;;;;;4.10;0.55;;;8.60;99.90;;;;;;5060140;28;20177;-63
2021/05/07 01:45:24;;;;;;;3.97;0.43;;;8.50;99.90;;;;;;5063421;28;20606;-64
2021/05/07 01:47:50;;;;;;;4.05;0.57;;;8.50;99.90;;;;;;5072415;28;20199;-63
2021/05/07 01:50:37;;;;;;;4.00;0.52;;;8.40;99.90;;;;;;5068038;28;20204;-63
2021/05/07 01:53:04;;;;;;;3.90;0.45;;;8.40;99.90;;;;;;5054846;28;20241;-64
2021/05/07 01:55:47;;;;;;;4.10;0.50;;;8.30;99.90;;;;;;5054631;28;20679;-64
2021/05/07 01:58:17;;;;;;;3.90;0.40;;;8.30;99.90;;;;;;5070408;28;20241;-63
2021/05/07 02:00:43;;;;;;;4.20;0.60;;;8.20;99.90;;;;;;5074265;28;20240;-65
2021/05/07 02:03:10;;;;;;;3.90;0.50;;;8.20;99.90;;;;;;5058820;28;20213;-65
2021/05/07 02:05:36;;;;;;;4.10;0.60;;;8.10;99.90;;;;;;5055584;28;20778;-62
2021/05/07 02:08:04;;;;;;;3.80;0.40;;;8.10;99.90;;;;;;5073712;28;20200;-64
2021/05/07 02:10:30;;;;;;;3.90;0.45;;;8.10;99.90;;;;;;5074165;28;20537;-63
2021/05/07 02:12:57;;;;;;;3.97;0.52;;;8.10;99.90;;;;;;5054088;28;20181;-65
2021/05/07 02:15:24;;;;;;;3.90;0.40;;;8.10;99.90;;;;;;5071230;28;20237;-64
2021/05/07 02:17:51;;;;;;;4.50;0.60;;;8.00;99.90;;;;;;5072819;28;20708;-64
2021/05/07 02:20:18;;;;;;;4.20;0.73;;;8.00;99.90;;;;;;5074024;28;20204;-63
2021/05/07 02:22:46;;;;;;;4.03;0.57;;;8.00;99.90;;;;;;5055295;28;20187;-64
2021/05/07 02:25:13;;;;;;;4.40;1.02;;;7.90;99.90;;;;;;5054068;28;20178;-65
2021/05/07 02:27:38;;;;;;;3.95;0.30;;;7.90;99.90;;;;;;5070085;28;20197;-65
2021/05/07 02:30:06;;;;;;;4.00;0.40;;;7.90;99.90;;;;;;5073222;28;20256;-63
2021/05/07 02:32:32;;;;;;;4.00;0.40;;;7.90;99.90;;;;;;5049839;28;20422;-64
2021/05/07 02:34:57;;;;;;;4.10;0.67;;;7.90;99.90;;;;;;5053845;28;20193;-65
2021/05/07 02:37:23;;;;;;;3.90;0.40;;;7.90;99.90;;;;;;5071478;28;20186;-64
2021/05/07 02:39:49;;;;;;;4.60;0.60;;;7.90;99.90;;;;;;5064688;28;20211;-65
2021/05/07 02:42:14;;;;;;;4.00;0.50;;;7.90;99.90;;;;;;5069574;28;20579;-64
2021/05/07 02:44:40;;;;;;;5.10;0.97;;;8.00;99.90;;;;;;5053678;28;20660;-63
2021/05/07 02:47:05;;;;;;;4.00;0.47;;;8.00;99.90;;;;;;5067723;28;20740;-64
2021/05/07 02:49:33;;;;;;;4.17;0.60;;;8.00;99.90;;;;;;5073042;28;20240;-64
2021/05/07 02:51:58;;;;;;;4.00;0.50;;;8.00;99.90;;;;;;5060282;28;20203;-65
2021/05/07 02:54:24;;;;;;;4.20;0.70;;;8.00;99.90;;;;;;5053505;28;20563;-64
2021/05/07 02:56:50;;;;;;;4.10;0.60;;;8.00;99.90;;;;;;5064256;28;20240;-65
2021/05/07 02:59:16;;;;;;;4.27;0.63;;;8.00;99.90;;;;;;5066841;28;20603;-63
2021/05/07 03:01:42;;;;;;;4.00;0.80;;;8.00;99.90;;;;;;5062646;28;20183;-64
2021/05/07 03:04:08;;;;;;;3.95;0.50;;;8.00;99.90;;;;;;5073316;28;20198;-62
2021/05/07 03:06:34;;;;;;;5.13;0.57;;;8.00;99.90;;;;;;5064521;28;20179;-64
2021/05/07 03:08:59;;;;;;;3.90;0.40;;;8.00;99.90;;;;;;5053251;28;20654;-64
2021/05/07 03:11:25;;;;;;;4.00;0.60;;;8.00;99.90;;;;;;5059317;28;20178;-63
2021/05/07 03:13:51;;;;;;;4.03;0.50;;;8.00;99.90;;;;;;5073649;28;20634;-64
2021/05/07 03:16:16;;;;;;;3.90;0.40;;;7.90;99.90;;;;;;5061884;28;20547;-64
2021/05/07 03:18:42;;;;;;;4.00;0.60;;;8.00;99.90;;;;;;5060473;28;20199;-63
2021/05/07 03:21:07;;;;;;;4.00;0.63;;;8.00;99.90;;;;;;5055854;28;20177;-63
2021/05/07 03:23:33;;;;;;;4.00;0.77;;;8.00;99.90;;;;;;5073024;28;20198;-63
2021/05/07 03:25:59;;;;;;;4.00;0.70;;;8.00;99.90;;;;;;5071701;28;20644;-63
2021/05/07 03:28:25;;;;;;;3.90;0.50;;;8.00;99.90;;;;;;5053071;28;20428;-63
2021/05/07 03:30:50;;;;;;;4.97;1.03;;;8.00;99.90;;;;;;5053311;28;20183;-63
2021/05/07 03:33:16;;;;;;;4.00;0.70;;;8.00;99.90;;;;;;5072067;28;20263;-63
2021/05/07 03:35:41;;;;;;;4.73;1.53;;;8.00;99.90;;;;;;5073026;28;20227;-64
2021/05/07 03:38:07;;;;;;;3.80;0.43;;;7.90;99.90;;;;;;5058260;28;20284;-64
2021/05/07 03:40:33;;;;;;;3.90;0.50;;;7.90;99.90;;;;;;5073093;28;20201;-63
2021/05/07 03:42:59;;;;;;;3.80;0.47;;;7.90;99.90;;;;;;5056264;28;20574;-65
2021/05/07 03:45:24;;;;;;;3.97;0.60;;;7.90;99.90;;;;;;5053305;28;20418;-63
2021/05/07 03:47:50;;;;;;;4.10;0.60;;;7.90;99.90;;;;;;5052513;28;20182;-64
2021/05/07 03:50:16;;;;;;;3.93;0.80;;;7.90;99.90;;;;;;5053143;28;20533;-66
2021/05/07 03:52:42;;;;;;;3.88;0.65;;;7.90;99.90;;;;;;5065767;28;20268;-64
2021/05/07 03:55:10;;;;;;;4.45;0.95;;;7.80;99.90;;;;;;5073097;28;20183;-63
2021/05/07 03:57:36;;;;;;;4.40;1.00;;;7.80;99.90;;;;;;5060798;28;20189;-63
2021/05/07 04:00:04;;;;;;;4.10;0.70;;;7.80;99.90;;;;;;5052699;28;20315;-65
2021/05/07 04:02:29;;;;;;;4.20;0.90;;;7.80;99.90;;;;;;5055165;28;20423;-65
2021/05/07 04:04:55;;;;;;;4.10;0.83;;;7.70;99.90;;;;;;5054098;28;20170;-64
2021/05/07 04:07:21;;;;;;;4.80;0.97;;;7.70;99.90;;;;;;5072559;28;20218;-64
2021/05/07 04:09:59;;;;;;;4.00;0.73;;;7.70;99.90;;;;;;5072125;28;20204;-65
2021/05/07 04:15:00;;;;;;;4.30;1.13;;;7.60;99.90;;;;;;5034593;28;20169;-65
2021/05/07 04:17:26;;;;;;;3.90;0.75;;;7.60;99.90;;;;;;5072293;28;20197;-63
2021/05/07 04:19:52;;;;;;;4.00;0.60;;;7.60;99.90;;;;;;5075755;28;20743;-63
2021/05/07 04:22:17;;;;;;;4.13;0.80;;;7.60;99.90;;;;;;5056358;28;20637;-64
2021/05/07 04:24:43;;;;;;;4.10;0.70;;;7.70;99.90;;;;;;5062141;28;20176;-64
2021/05/07 04:27:10;;;;;;;4.30;0.60;;;7.60;99.90;;;;;;5057146;28;20182;-64
2021/05/07 04:29:35;;;;;;;4.72;0.80;;;7.60;99.90;;;;;;5056107;28;20436;-65
2021/05/07 04:32:01;;;;;;;4.50;1.23;;;7.60;99.90;;;;;;5071174;28;20286;-64
2021/05/07 04:34:27;;;;;;;4.60;1.20;;;7.60;99.90;;;;;;5075893;28;20182;-63
2021/05/07 04:36:53;;;;;;;4.20;0.70;;;7.60;99.90;;;;;;5060685;28;20257;-63
2021/05/07 04:39:19;;;;;;;4.00;0.90;;;7.50;99.90;;;;;;5055614;28;20218;-63
2021/05/07 04:41:45;;;;;;;3.90;0.60;;;7.50;99.90;;;;;;5069529;28;20182;-63
2021/05/07 04:44:11;;;;;;;4.70;0.80;;;7.50;99.90;;;;;;5076015;28;20174;-64
2021/05/07 04:46:36;;;;;;;3.70;0.50;;;7.50;99.90;;;;;;5073712;28;20183;-63
2021/05/07 04:49:02;;;;;;;3.90;0.80;;;7.50;99.90;;;;;;5058616;28;20209;-63
2021/05/07 04:51:28;;;;;;;4.53;0.95;;;7.50;99.90;;;;;;5068378;28;20233;-63
2021/05/07 04:53:54;;;;;;;4.73;0.90;;;7.50;99.90;;;;;;5075880;28;20182;-64
2021/05/07 04:56:20;;;;;;;4.10;1.00;;;7.60;99.90;;;;;;5063943;28;20187;-64
2021/05/07 04:58:46;;;;;;;4.20;0.93;;;7.50;99.90;;;;;;5055373;28;20626;-64
2021/05/07 05:01:12;;;;;;;7.70;2.93;;;7.50;99.90;;;;;;5065774;28;20173;-64
2021/05/07 05:03:37;;;;;;;4.50;1.23;;;7.40;99.90;;;;;;5075728;28;20196;-65
2021/05/07 05:06:03;;;;;;;3.70;0.70;;;7.40;99.90;;;;;;5066304;28;20525;-63
2021/05/07 05:08:29;;;;;;;4.37;1.63;;;7.40;99.90;;;;;;5055302;28;20201;-64
2021/05/07 05:10:56;;;;;;;4.77;1.20;;;7.40;99.90;;;;;;5060254;28;20476;-64
2021/05/07 05:13:22;;;;;;;3.90;1.00;;;7.30;99.90;;;;;;5075239;28;20486;-63
2021/05/07 05:15:49;;;;;;;4.50;1.08;;;7.30;99.90;;;;;;5069896;28;20255;-64
2021/05/07 05:18:25;;;;;;;3.80;1.00;;;7.30;99.90;;;;;;5055305;28;20192;-63
2021/05/07 05:20:55;;;;;;;4.78;0.95;;;7.30;99.90;;;;;;5069073;28;20250;-64
2021/05/07 05:23:20;;;;;;;3.70;0.70;;;7.30;99.90;;;;;;5034109;28;20175;-64
2021/05/07 05:25:48;;;;;;;4.70;0.87;;;7.30;99.90;;;;;;5061240;28;20554;-65
2021/05/07 05:28:13;;;;;;;4.00;0.70;;;7.30;99.90;;;;;;5075060;28;20237;-63
2021/05/07 05:30:39;;;;;;;4.50;0.93;;;7.30;99.90;;;;;;5073893;28;20647;-63
2021/05/07 05:33:05;;;;;;;3.70;0.87;;;7.30;99.90;;;;;;5075140;28;20176;-64
2021/05/07 05:35:30;;;;;;;4.07;0.80;;;7.30;99.90;;;;;;5059335;28;20420;-64
2021/05/07 05:37:56;;;;;;;4.00;1.07;;;7.30;99.90;;;;;;5054321;28;20177;-63
2021/05/07 05:40:22;;;;;;;4.60;1.00;;;7.30;99.90;;;;;;5063223;28;20199;-63
2021/05/07 05:42:48;;;;;;;3.63;0.83;;;7.40;99.90;;;;;;5074928;28;20497;-63
2021/05/07 05:45:14;;;;;;;5.30;1.97;;;7.40;99.90;;;;;;5067468;28;20202;-64
2021/05/07 05:47:39;;;;;;;4.55;0.95;;;7.40;99.90;;;;;;5054462;28;20166;-63
2021/05/07 05:50:06;;;;;;;4.13;0.77;;;7.50;99.90;;;;;;5064267;28;20680;-64
2021/05/07 05:52:31;;;;;;;4.13;0.82;;;7.50;99.90;;;;;;5054563;28;20208;-64
2021/05/07 05:54:57;;;;;;;3.90;0.80;;;7.50;99.90;;;;;;5057246;28;20174;-65
2021/05/07 05:57:23;;;;;;;4.20;0.90;;;7.50;99.90;;;;;;5054244;28;20184;-64
2021/05/07 05:59:49;;;;;;;4.27;1.50;;;7.60;99.90;;;;;;5059369;28;20212;-66
2021/05/07 06:02:16;;;;;;;4.70;0.90;;;7.60;99.90;;;;;;5074386;28;20209;-67
2021/05/07 06:04:41;;;;;;;4.13;1.02;;;7.60;99.90;;;;;;5063312;28;20257;-68
2021/05/07 06:07:07;;;;;;;5.40;0.97;;;7.50;99.90;;;;;;5053927;28;20171;-67
2021/05/07 06:09:32;;;;;;;4.33;1.47;;;7.60;99.90;;;;;;5060081;28;20220;-68
2021/05/07 06:11:58;;;;;;;4.70;1.07;;;7.60;99.90;;;;;;5059845;28;20181;-68
2021/05/07 06:14:24;;;;;;;4.00;0.70;;;7.70;99.90;;;;;;5067188;28;20571;-69
2021/05/07 06:16:49;;;;;;;3.83;0.90;;;7.60;99.90;;;;;;5053744;28;20176;-68
2021/05/07 06:19:15;;;;;;;5.20;1.57;;;7.60;99.90;;;;;;5059881;28;20200;-68
2021/05/07 06:21:41;;;;;;;5.03;1.00;;;7.60;99.90;;;;;;5074603;28;20167;-67
2021/05/07 06:24:07;;;;;;;5.83;1.33;;;7.60;99.90;;;;;;5069313;28;20185;-68
2021/05/07 06:26:32;;;;;;;4.60;0.95;;;7.60;99.90;;;;;;5053640;28;20167;-68
2021/05/07 06:28:58;;;;;;;4.87;1.87;;;7.70;99.90;;;;;;5056082;28;20215;-68
2021/05/07 06:31:23;;;;;;;5.40;1.10;;;7.70;99.90;;;;;;5058385;28;20181;-69
2021/05/07 06:33:49;;;;;;;4.20;1.03;;;7.70;99.90;;;;;;5054010;28;20636;-69
2021/05/07 06:36:17;;;;;;;5.73;1.60;;;7.70;99.90;;;;;;5072502;28;20181;-69
2021/05/07 06:38:43;;;;;;;4.38;1.17;;;7.70;99.90;;;;;;5072561;28;20199;-68
2021/05/07 06:41:11;;;;;;;4.10;1.30;;;7.60;99.90;;;;;;5064494;28;20187;-70
2021/05/07 06:43:37;;;;;;;4.75;1.10;;;7.60;99.90;;;;;;5073207;28;20200;-71
2021/05/07 06:46:02;;;;;;;4.53;1.43;;;7.60;99.90;;;;;;5061585;28;20210;-70
2021/05/07 06:48:28;;;;;;;5.00;1.67;;;7.60;99.90;;;;;;5073146;28;20635;-71
2021/05/07 06:50:54;;;;;;;4.10;1.03;;;7.60;99.90;;;;;;5072984;28;20520;-68
2021/05/07 06:53:20;;;;;;;5.90;1.83;;;7.70;99.90;;;;;;5053102;28;20192;-69
2021/05/07 06:55:46;;;;;;;5.35;1.98;;;7.70;99.90;;;;;;5057108;28;20251;-69
2021/05/07 06:58:11;;;;;;;4.30;1.00;;;7.70;99.90;;;;;;5053038;28;20679;-67
2021/05/07 07:00:37;;;;;;;7.05;1.65;;;7.80;99.90;;;;;;5052950;28;20558;-66
2021/05/07 07:03:03;;;;;;;6.23;1.60;;;7.80;99.90;;;;;;5070507;28;20177;-72
2021/05/07 07:05:29;;;;;;;4.87;1.33;;;7.90;99.90;;;;;;5057746;28;20181;-67
2021/05/07 07:07:55;;;;;;;6.10;1.43;;;7.90;99.90;;;;;;5052542;28;20984;-65
2021/05/07 07:10:21;;;;;;;8.93;2.37;;;7.90;99.90;;;;;;5064522;28;20169;-65
2021/05/07 07:12:47;;;;;;;4.88;1.95;;;7.90;99.90;;;;;;5073337;28;20203;-64
2021/05/07 07:15:13;;;;;;;5.53;2.23;;;8.00;99.90;;;;;;5066516;28;20652;-66
2021/05/07 07:17:40;;;;;;;7.50;2.60;;;8.00;99.90;;;;;;5072667;28;20224;-67
2021/05/07 07:20:07;;;;;;;4.63;1.27;;;8.00;99.90;;;;;;5061659;28;20190;-66
2021/05/07 07:22:32;;;;;;;6.07;2.00;;;7.90;99.90;;;;;;5052893;28;20224;-67
2021/05/07 07:24:58;;;;;;;5.90;2.63;;;8.00;99.90;;;;;;5058632;28;20172;-67
2021/05/07 07:27:23;;;;;;;5.57;1.23;;;8.00;99.90;;;;;;5052731;28;20173;-67
2021/05/07 07:29:49;;;;;;;5.00;1.60;;;8.00;99.90;;;;;;5058935;28;20532;-64
2021/05/07 07:32:18;;;;;;;5.80;1.73;;;8.00;99.90;;;;;;5071286;28;20612;-66
2021/05/07 07:34:43;;;;;;;5.22;1.50;;;8.10;99.90;;;;;;5058382;28;20178;-65
2021/05/07 07:37:09;;;;;;;5.40;1.70;;;8.10;99.90;;;;;;5072477;28;20263;-65
2021/05/07 07:39:35;;;;;;;4.43;1.57;;;8.20;99.90;;;;;;5061758;28;20204;-66
2021/05/07 07:42:00;;;;;;;7.43;1.60;;;8.40;99.90;;;;;;5053080;28;20174;-65
2021/05/07 07:44:26;;;;;;;4.83;1.23;;;8.50;99.90;;;;;;5054879;28;20404;-65
2021/05/07 07:46:52;;;;;;;6.70;2.30;;;8.60;99.90;;;;;;5063711;28;20176;-66
2021/05/07 07:49:17;;;;;;;5.20;1.60;;;8.80;99.90;;;;;;5051412;28;20193;-66
2021/05/07 07:51:43;;;;;;;7.53;2.87;;;9.10;99.90;;;;;;5073347;28;20169;-67
2021/05/07 07:54:11;;;;;;;6.03;2.10;;;9.10;99.90;;;;;;5077001;28;20169;-66
2021/05/07 07:56:37;;;;;;;6.60;2.40;;;9.20;99.90;;;;;;5075846;28;20255;-66
2021/05/07 07:59:03;;;;;;;6.97;2.28;;;9.20;99.90;;;;;;5075274;28;20208;-65
2021/05/07 08:01:29;;;;;;;6.80;2.28;;;9.30;99.90;;;;;;5058201;28;20168;-65
2021/05/07 08:03:55;;;;;;;6.67;2.40;;;9.30;99.90;;;;;;5065618;28;20175;-65
2021/05/07 08:06:22;;;;;;;6.43;2.03;;;9.30;99.90;;;;;;5076091;28;20177;-66
2021/05/07 08:08:48;;;;;;;6.57;2.75;;;9.30;99.90;;;;;;5068613;28;20193;-65
2021/05/07 08:11:14;;;;;;;6.32;2.08;;;9.30;99.90;;;;;;5056378;28;20177;-65
2021/05/07 08:13:39;;;;;;;6.67;2.70;;;9.50;99.90;;;;;;5057261;28;20173;-66
2021/05/07 08:16:05;;;;;;;6.20;2.50;;;9.90;99.90;;;;;;5054558;28;20177;-66
2021/05/07 08:18:31;;;;;;;5.70;2.33;;;10.50;99.90;;;;;;5056595;28;20558;-66
2021/05/07 08:20:57;;;;;;;7.00;2.93;;;11.10;99.90;;;;;;5054484;28;20451;-65
2021/05/07 08:23:22;;;;;;;7.13;2.17;;;11.70;99.90;;;;;;5055972;28;20864;-66
2021/05/07 08:25:48;;;;;;;5.77;1.70;;;12.10;99.90;;;;;;5054386;28;20229;-68
2021/05/07 08:28:14;;;;;;;6.50;2.20;;;12.60;99.90;;;;;;5054819;28;20204;-67
2021/05/07 08:30:39;;;;;;;5.60;1.87;;;13.50;99.90;;;;;;5054831;28;20185;-67
2021/05/07 08:33:05;;;;;;;6.00;2.03;;;14.10;99.90;;;;;;5054226;28;20185;-65
2021/05/07 08:35:32;;;;;;;7.73;2.43;;;14.50;99.90;;;;;;5054887;28;20180;-66
2021/05/07 08:37:59;;;;;;;6.87;2.60;;;14.30;99.90;;;;;;5051330;28;20171;-66
2021/05/07 08:40:25;;;;;;;5.50;2.60;;;14.30;99.90;;;;;;5056869;28;20792;-64
2021/05/07 08:42:51;;;;;;;6.63;2.40;;;14.20;99.90;;;;;;5055954;28;20415;-66
2021/05/07 08:45:17;;;;;;;4.70;2.00;;;14.00;99.90;;;;;;5054906;28;20416;-65
2021/05/07 08:47:43;;;;;;;6.87;1.97;;;13.60;99.90;;;;;;5055291;28;20173;-64
2021/05/07 08:50:10;;;;;;;5.70;2.67;;;13.00;99.90;;;;;;5069666;28;20592;-65
2021/05/07 08:52:36;;;;;;;5.60;2.57;;;12.50;99.90;;;;;;5074464;28;20916;-65
2021/05/07 08:55:04;;;;;;;6.63;2.60;;;12.40;99.90;;;;;;5068896;28;20433;-65
2021/05/07 08:57:29;;;;;;;7.47;2.13;;;12.30;99.90;;;;;;5075211;28;20206;-66
2021/05/07 08:59:55;;;;;;;7.53;2.70;;;13.20;99.90;;;;;;5062454;28;20840;-66
2021/05/07 09:02:32;;;;;;;5.10;2.50;;;13.80;99.90;;;;;;5055598;28;20258;-66
2021/05/07 09:04:59;;;;;;;5.07;2.07;;;15.00;99.90;;;;;;5070097;28;20211;-67
2021/05/07 09:07:28;;;;;;;5.33;2.70;;;15.70;99.80;;;;;;5075114;28;20406;-65
2021/05/07 09:09:58;;;;;;;4.30;1.80;;;16.60;97.70;;;;;;5059563;28;20500;-64
2021/05/07 09:12:25;;;;;;;4.17;2.20;;;16.90;96.90;;;;;;5055400;28;20456;-65
2021/05/07 09:14:51;;;;;;;4.27;2.03;;;17.40;97.10;;;;;;5068956;28;20431;-64
2021/05/07 09:17:21;;;;;;;5.30;2.07;;;17.50;95.00;;;;;;5072544;28;20416;-66
2021/05/07 09:19:47;;;;;;;5.47;2.70;;;17.00;94.40;;;;;;5061416;28;20213;-66
2021/05/07 09:22:23;;;;;;;3.83;1.73;;;17.10;95.60;;;;;;5063825;28;20414;-66
2021/05/07 09:24:49;;;;;;;4.40;1.90;;;17.60;95.40;;;;;;5075375;28;20819;-66
2021/05/07 09:27:22;;;;;;;5.83;2.43;;;17.70;92.50;;;;;;5066102;28;20452;-64
2021/05/07 09:29:48;;;;;;;4.87;2.53;;;17.20;92.10;;;;;;5054926;28;20929;-65
2021/05/07 09:32:14;;;;;;;5.03;2.10;;;16.50;93.00;;;;;;5062244;28;20434;-65
2021/05/07 09:34:40;;;;;;;4.00;1.77;;;15.40;92.10;;;;;;5073274;28;20686;-64
2021/05/07 09:37:22;;;;;;;4.77;2.60;;;14.80;94.60;;;;;;5074346;28;20954;-64
2021/05/07 09:39:47;;;;;;;4.20;2.00;;;15.50;95.60;;;;;;5070381;28;20516;-65
2021/05/07 09:42:26;;;;;;;4.17;2.27;;;16.40;96.70;;;;;;5054843;28;20496;-63
2021/05/07 09:44:52;;;;;;;4.80;2.03;;;17.90;93.60;;;;;;5058432;28;20480;-63
2021/05/07 09:47:18;;;;;;;4.73;2.00;;;19.10;92.60;;;;;;5074309;28;20409;-62
2021/05/07 09:49:44;;;;;;;4.73;2.03;;;20.00;89.80;;;;;;5072615;28;20257;-64
2021/05/07 09:52:09;;;;;;;3.80;1.63;;;20.00;84.70;;;;;;5074666;28;20181;-65
2021/05/07 09:54:38;;;;;;;4.70;1.90;;;19.40;82.50;;;;;;5072865;28;20177;-63
2021/05/07 09:57:05;;;;;;;4.43;2.10;;;18.10;82.70;;;;;;5054037;28;20182;-65
2021/05/07 09:59:31;;;;;;;3.93;2.00;;;17.00;84.70;;;;;;5053978;28;20465;-64
2021/05/07 10:01:57;;;;;;;5.00;1.60;;;16.00;89.50;;;;;;5074600;28;20457;-62
2021/05/07 10:04:23;;;;;;;4.83;2.17;;;15.30;88.70;;;;;;5059411;28;20996;-65
2021/05/07 10:06:48;;;;;;;3.30;1.37;;;14.50;87.80;;;;;;5053999;28;20748;-66
2021/05/07 10:09:23;;;;;;;4.10;1.90;;;14.90;92.00;;;;;;5066829;28;20206;-64
2021/05/07 10:11:51;;;;;;;3.80;1.60;;;16.10;92.20;;;;;;5074124;28;20440;-67
2021/05/07 10:14:18;;;;;;;3.53;1.60;;;17.10;89.60;;;;;;5061100;28;20419;-66
2021/05/07 10:16:44;;;;;;;4.00;1.73;;;18.10;85.10;;;;;;5053141;28;20418;-65
2021/05/07 10:19:11;;;;;;;4.47;1.97;;;18.10;82.80;;;;;;5073770;28;20458;-67
2021/05/07 10:21:38;;;;;;;3.53;1.80;;;17.50;79.40;;;;;;5073734;28;20179;-66
2021/05/07 10:24:09;;;;;;;3.70;2.00;;;17.00;82.20;;;;;;5053975;28;20934;-68
2021/05/07 10:26:42;;;;;;;4.60;1.70;;;16.50;82.40;;;;;;5053444;28;20412;-64
2021/05/07 10:29:34;;;;;;;4.60;2.17;;;16.20;84.30;;;;;;5054538;28;20440;-63
2021/05/07 10:31:59;;;;;;;4.83;1.73;;;16.30;85.00;;;;;;5053324;28;20464;-65
2021/05/07 10:34:27;;;;;;;4.40;2.00;;;16.50;85.10;;;;;;5073785;28;20410;-65
2021/05/07 10:36:56;;;;;;;3.40;1.83;;;16.20;81.20;;;;;;5073052;28;20169;-66
2021/05/07 10:39:31;;;;;;;3.77;1.57;;;16.00;81.60;;;;;;5032324;28;20803;-65
2021/05/07 10:42:14;;;;;;;4.93;2.27;;;16.00;77.20;;;;;;5033978;28;20393;-68
2021/05/07 10:44:43;;;;;;;3.87;1.80;;;15.80;79.80;;;;;;5033673;28;20455;-65
2021/05/07 10:47:10;;;;;;;4.23;1.80;;;15.20;79.60;;;;;;5040460;28;20416;-66
2021/05/07 10:49:38;;;;;;;4.90;1.90;;;14.80;85.50;;;;;;5053525;28;20565;-65
2021/05/07 10:52:06;;;;;;;4.37;1.93;;;14.50;82.70;;;;;;5057755;28;20428;-67
2021/05/07 10:54:46;;;;;;;5.23;1.60;;;14.00;85.70;;;;;;5073541;28;20441;-67
2021/05/07 10:57:25;;;;;;;3.73;1.80;;;13.60;86.50;;;;;;5067391;28;20448;-66
2021/05/07 10:59:55;;;;;;;3.60;1.70;;;13.40;87.90;;;;;;5053106;28;20826;-69
2021/05/07 11:02:21;;;;;;;4.60;1.53;;;13.50;87.30;;;;;;5053329;28;20427;-70
2021/05/07 11:04:48;;;;;;;3.00;1.10;;;13.80;89.60;;;;;;5053329;28;20432;-67
2021/05/07 11:07:25;;;;;;;3.30;1.63;;;14.30;89.70;;;;;;5056803;28;20411;-67
2021/05/07 11:10:10;;;;;;;3.20;1.30;;;14.70;88.40;;;;;;5073444;28;20426;-69
2021/05/07 11:12:37;;;;;;;3.73;1.43;;;15.10;88.20;;;;;;5066484;28;20428;-67
2021/05/07 11:15:04;;;;;;;3.10;1.40;;;15.10;84.40;;;;;;5053311;28;20416;-69
2021/05/07 11:17:30;;;;;;;2.80;1.20;;;15.00;83.30;;;;;;5053773;28;20440;-67
2021/05/07 11:19:56;;;;;;;3.93;1.60;;;15.10;86.50;;;;;;5052974;28;20847;-67
2021/05/07 11:22:25;;;;;;;5.93;2.23;;;15.10;83.60;;;;;;5059374;28;20410;-69
2021/05/07 11:24:51;;;;;;;4.43;1.73;;;15.10;80.60;;;;;;5061946;28;20226;-68
2021/05/07 11:27:21;;;;;;;4.10;1.73;;;15.20;80.40;;;;;;5072659;28;20893;-68
2021/05/07 11:29:48;;;;;;;5.00;1.67;;;15.10;77.40;;;;;;5057326;28;20490;-65
2021/05/07 11:32:21;;;;;;;4.83;2.03;;;14.80;81.90;;;;;;5057198;28;20403;-67
2021/05/07 11:34:53;;;;;;;3.90;1.70;;;14.70;79.70;;;;;;5057576;28;20798;-65
2021/05/07 11:37:20;;;;;;;6.83;3.10;;;14.90;81.20;;;;;;5063534;28;20424;-64
2021/05/07 11:40:06;;;;;;;5.53;2.47;;;15.00;81.00;;;;;;5075127;28;20513;-63
2021/05/07 11:42:34;;;;;;;3.93;2.03;;;15.30;83.20;;;;;;5057108;28;20885;-65
2021/05/07 11:45:07;;;;;;;4.10;1.77;;;15.50;84.30;;;;;;5069590;28;20490;-68
2021/05/07 11:47:36;;;;;;;4.93;1.53;;;15.60;78.10;;;;;;5073761;28;20418;-63
2021/05/07 11:50:04;;;;;;;4.60;1.63;;;15.40;77.90;;;;;;5069706;28;20865;-63
2021/05/07 11:52:37;;;;;;;8.40;1.53;;;15.30;77.90;;;;;;5056885;28;20542;-63
2021/05/07 11:55:22;;;;;;;4.33;1.80;;;15.00;77.60;;;;;;5070424;28;20788;-64
2021/05/07 11:57:57;;;;;;;4.90;1.53;;;14.70;72.50;;;;;;5056164;28;20441;-62
2021/05/07 12:00:23;;;;;;;4.73;1.57;;;14.40;77.00;;;;;;5053861;28;20461;-66
2021/05/07 12:03:24;;;;;;;3.47;1.37;;;14.30;76.60;;;;;;5066718;28;20414;-65
2021/05/07 12:05:49;;;;;;;3.70;1.10;;;14.00;79.20;;;;;;5052564;28;20555;-66
2021/05/07 12:08:28;;;;;;;5.57;1.67;;;14.10;81.60;;;;;;5072349;28;20437;-65
2021/05/07 12:10:54;;;;;;;4.63;2.10;;;14.20;81.20;;;;;;5075571;28;20254;-67
2021/05/07 12:13:24;;;;;;;3.60;1.70;;;14.30;78.10;;;;;;5076235;28;20508;-66
2021/05/07 12:15:51;;;;;;;3.53;1.10;;;14.10;79.60;;;;;;5076087;28;20409;-65
2021/05/07 12:18:24;;;;;;;3.70;1.30;;;14.20;79.40;;;;;;5059351;28;20413;-67
2021/05/07 12:21:01;;;;;;;3.87;2.03;;;14.10;79.70;;;;;;5068611;28;20462;-67
2021/05/07 12:23:43;;;;;;;3.40;1.47;;;14.00;77.00;;;;;;5073993;28;20425;-67
2021/05/07 12:26:09;;;;;;;3.10;1.30;;;14.00;76.70;;;;;;5043360;28;20460;-66
2021/05/07 12:28:35;;;;;;;3.63;1.67;;;14.00;78.70;;;;;;5059135;28;20437;-66
2021/05/07 12:31:04;;;;;;;3.73;1.50;;;13.90;80.80;;;;;;5076242;28;20980;-66
2021/05/07 12:33:29;;;;;;;4.20;1.70;;;13.80;79.20;;;;;;5073474;28;20434;-66
2021/05/07 12:36:00;;;;;;;4.50;1.63;;;13.80;77.60;;;;;;5055756;28;20413;-66
2021/05/07 12:38:29;;;;;;;3.77;1.60;;;13.70;78.20;;;;;;5063244;28;20199;-67
2021/05/07 12:40:58;;;;;;;2.93;1.03;;;13.50;78.40;;;;;;5063861;28;20543;-66
2021/05/07 12:43:25;;;;;;;3.03;1.30;;;13.30;79.40;;;;;;5069996;28;20934;-68
2021/05/07 12:45:52;;;;;;;8.40;1.77;;;13.10;80.90;;;;;;5075213;28;20416;-66
2021/05/07 12:48:18;;;;;;;5.00;1.90;;;12.90;79.80;;;;;;5072452;28;20495;-67
2021/05/07 12:50:45;;;;;;;4.07;1.77;;;12.60;82.40;;;;;;5055844;28;20405;-67
2021/05/07 12:53:19;;;;;;;3.53;1.20;;;12.30;85.00;;;;;;5057096;28;20518;-66
2021/05/07 12:55:45;;;;;;;3.70;1.40;;;12.10;87.20;;;;;;5075507;28;20173;-67
2021/05/07 12:58:11;;;;;;;4.13;1.60;;;12.00;90.00;;;;;;5073753;28;20204;-67